sensor_id;sensor_type;location;lat;lon;timestamp;temperature;humidity
16074;DHT22;8141;52.664;5.074;2023-03-01T00:01:29;17.70;50.30
16074;DHT22;8141;52.664;5.074;2023-03-01T00:03:59;17.70;50.10
16074;DHT22;8141;52.664;5.074;2023-03-01T00:06:28;17.70;50.10
16074;DHT22;8141;52.664;5.074;2023-03-01T00:08:57;17.60;50.00
16074;DHT22;8141;52.664;5.074;2023-03-01T00:11:26;17.60;50.10
16074;DHT22;8141;52.664;5.074;2023-03-01T00:13:57;17.60;50.00
16074;DHT22;8141;52.664;5.074;2023-03-01T00:16:29;17.60;49.90
16074;DHT22;8141;52.664;5.074;2023-03-01T00:19:00;17.60;50.00
16074;DHT22;8141;52.664;5.074;2023-03-01T00:21:28;17.60;50.00
16074;DHT22;8141;52.664;5.074;2023-03-01T00:23:58;17.60;49.90
16074;DHT22;8141;52.664;5.074;2023-03-01T00:26:27;17.60;50.00
16074;DHT22;8141;52.664;5.074;2023-03-01T00:28:57;17.60;49.90
16074;DHT22;8141;52.664;5.074;2023-03-01T00:31:27;17.60;50.00
16074;DHT22;8141;52.664;5.074;2023-03-01T00:34:00;17.60;49.90
16074;DHT22;8141;52.664;5.074;2023-03-01T00:36:31;17.60;50.00
16074;DHT22;8141;52.664;5.074;2023-03-01T00:39:01;17.60;50.00
16074;DHT22;8141;52.664;5.074;2023-03-01T00:41:31;17.60;49.90
16074;DHT22;8141;52.664;5.074;2023-03-01T00:44:01;17.60;49.90
16074;DHT22;8141;52.664;5.074;2023-03-01T00:46:29;17.60;50.00
16074;DHT22;8141;52.664;5.074;2023-03-01T00:49:00;17.60;49.90
16074;DHT22;8141;52.664;5.074;2023-03-01T00:51:29;17.60;49.90
16074;DHT22;8141;52.664;5.074;2023-03-01T00:53:58;17.60;50.40
16074;DHT22;8141;52.664;5.074;2023-03-01T00:56:27;17.60;49.80
16074;DHT22;8141;52.664;5.074;2023-03-01T00:58:57;17.60;50.20
16074;DHT22;8141;52.664;5.074;2023-03-01T01:01:28;17.60;49.80
16074;DHT22;8141;52.664;5.074;2023-03-01T01:04:00;17.50;49.60
16074;DHT22;8141;52.664;5.074;2023-03-01T01:06:31;17.50;49.70
16074;DHT22;8141;52.664;5.074;2023-03-01T01:09:01;17.50;49.70
16074;DHT22;8141;52.664;5.074;2023-03-01T01:11:30;17.50;49.80
16074;DHT22;8141;52.664;5.074;2023-03-01T01:13:59;17.50;49.80
16074;DHT22;8141;52.664;5.074;2023-03-01T01:16:27;17.50;49.60
16074;DHT22;8141;52.664;5.074;2023-03-01T01:18:57;17.50;49.80
16074;DHT22;8141;52.664;5.074;2023-03-01T01:21:26;17.50;49.80
16074;DHT22;8141;52.664;5.074;2023-03-01T01:23:55;17.50;49.70
16074;DHT22;8141;52.664;5.074;2023-03-01T01:26:25;17.50;49.60
16074;DHT22;8141;52.664;5.074;2023-03-01T01:28:55;17.50;49.60
16074;DHT22;8141;52.664;5.074;2023-03-01T01:31:24;17.50;49.50
16074;DHT22;8141;52.664;5.074;2023-03-01T01:33:54;17.50;49.60
16074;DHT22;8141;52.664;5.074;2023-03-01T01:36:23;17.50;49.60
16074;DHT22;8141;52.664;5.074;2023-03-01T01:38:53;17.50;49.60
16074;DHT22;8141;52.664;5.074;2023-03-01T01:41:22;17.40;49.60
16074;DHT22;8141;52.664;5.074;2023-03-01T01:44:12;17.50;49.60
16074;DHT22;8141;52.664;5.074;2023-03-01T01:46:44;17.40;49.50
16074;DHT22;8141;52.664;5.074;2023-03-01T01:49:20;17.50;49.50
16074;DHT22;8141;52.664;5.074;2023-03-01T01:51:59;17.50;49.50
16074;DHT22;8141;52.664;5.074;2023-03-01T01:54:39;17.40;49.50
16074;DHT22;8141;52.664;5.074;2023-03-01T01:57:13;17.40;49.50
16074;DHT22;8141;52.664;5.074;2023-03-01T01:59:49;17.40;49.50
16074;DHT22;8141;52.664;5.074;2023-03-01T02:02:20;17.40;49.40
16074;DHT22;8141;52.664;5.074;2023-03-01T02:04:50;17.40;49.40
16074;DHT22;8141;52.664;5.074;2023-03-01T02:07:22;17.40;49.40
16074;DHT22;8141;52.664;5.074;2023-03-01T02:09:53;17.40;49.40
16074;DHT22;8141;52.664;5.074;2023-03-01T02:12:23;17.40;49.50
16074;DHT22;8141;52.664;5.074;2023-03-01T02:14:52;17.40;49.50
16074;DHT22;8141;52.664;5.074;2023-03-01T02:17:21;17.40;49.40
16074;DHT22;8141;52.664;5.074;2023-03-01T02:19:59;17.40;49.30
16074;DHT22;8141;52.664;5.074;2023-03-01T02:22:35;17.40;49.60
16074;DHT22;8141;52.664;5.074;2023-03-01T02:25:28;17.40;49.40
16074;DHT22;8141;52.664;5.074;2023-03-01T02:28:07;17.30;49.40
16074;DHT22;8141;52.664;5.074;2023-03-01T02:30:47;17.40;49.20
16074;DHT22;8141;52.664;5.074;2023-03-01T02:33:31;17.40;49.30
16074;DHT22;8141;52.664;5.074;2023-03-01T02:36:05;17.30;49.30
16074;DHT22;8141;52.664;5.074;2023-03-01T02:38:34;17.30;49.20
16074;DHT22;8141;52.664;5.074;2023-03-01T02:41:04;17.40;49.30
16074;DHT22;8141;52.664;5.074;2023-03-01T02:43:34;17.30;49.40
16074;DHT22;8141;52.664;5.074;2023-03-01T02:46:06;17.30;49.20
16074;DHT22;8141;52.664;5.074;2023-03-01T02:48:41;17.30;49.20
16074;DHT22;8141;52.664;5.074;2023-03-01T02:51:19;17.30;49.40
16074;DHT22;8141;52.664;5.074;2023-03-01T02:53:58;17.30;49.20
16074;DHT22;8141;52.664;5.074;2023-03-01T02:56:34;17.30;49.20
16074;DHT22;8141;52.664;5.074;2023-03-01T02:59:02;17.30;49.40
16074;DHT22;8141;52.664;5.074;2023-03-01T03:01:32;17.30;49.20
16074;DHT22;8141;52.664;5.074;2023-03-01T03:04:05;17.30;49.10
16074;DHT22;8141;52.664;5.074;2023-03-01T03:06:33;17.30;49.20
16074;DHT22;8141;52.664;5.074;2023-03-01T03:09:02;17.30;49.20
16074;DHT22;8141;52.664;5.074;2023-03-01T03:11:31;17.30;49.20
16074;DHT22;8141;52.664;5.074;2023-03-01T03:13:59;17.30;49.20
16074;DHT22;8141;52.664;5.074;2023-03-01T03:16:28;17.30;49.30
16074;DHT22;8141;52.664;5.074;2023-03-01T03:18:58;17.30;49.70
16074;DHT22;8141;52.664;5.074;2023-03-01T03:21:31;17.30;49.10
16074;DHT22;8141;52.664;5.074;2023-03-01T03:23:59;17.30;49.20
16074;DHT22;8141;52.664;5.074;2023-03-01T03:26:28;17.20;49.10
16074;DHT22;8141;52.664;5.074;2023-03-01T03:28:57;17.30;49.20
16074;DHT22;8141;52.664;5.074;2023-03-01T03:31:25;17.30;49.10
16074;DHT22;8141;52.664;5.074;2023-03-01T03:33:53;17.30;49.10
16074;DHT22;8141;52.664;5.074;2023-03-01T03:36:24;17.20;49.10
16074;DHT22;8141;52.664;5.074;2023-03-01T03:38:52;17.20;49.00
16074;DHT22;8141;52.664;5.074;2023-03-01T03:41:21;17.20;49.00
16074;DHT22;8141;52.664;5.074;2023-03-01T03:43:49;17.20;49.00
16074;DHT22;8141;52.664;5.074;2023-03-01T03:46:17;17.20;49.00
16074;DHT22;8141;52.664;5.074;2023-03-01T03:48:46;17.20;49.70
16074;DHT22;8141;52.664;5.074;2023-03-01T03:51:16;17.20;49.00
16074;DHT22;8141;52.664;5.074;2023-03-01T03:53:46;17.20;49.10
16074;DHT22;8141;52.664;5.074;2023-03-01T03:56:14;17.20;48.90
16074;DHT22;8141;52.664;5.074;2023-03-01T03:58:42;17.20;48.90
16074;DHT22;8141;52.664;5.074;2023-03-01T04:01:10;17.20;49.00
16074;DHT22;8141;52.664;5.074;2023-03-01T04:03:39;17.20;48.90
16074;DHT22;8141;52.664;5.074;2023-03-01T04:06:08;17.20;48.90
16074;DHT22;8141;52.664;5.074;2023-03-01T04:08:36;17.20;49.20
16074;DHT22;8141;52.664;5.074;2023-03-01T04:11:06;17.20;49.30
16074;DHT22;8141;52.664;5.074;2023-03-01T04:13:49;17.20;49.70
16074;DHT22;8141;52.664;5.074;2023-03-01T04:16:18;17.20;49.40
16074;DHT22;8141;52.664;5.074;2023-03-01T04:18:46;17.20;49.10
16074;DHT22;8141;52.664;5.074;2023-03-01T04:21:15;17.20;49.00
16074;DHT22;8141;52.664;5.074;2023-03-01T04:23:43;17.20;49.10
16074;DHT22;8141;52.664;5.074;2023-03-01T04:26:13;17.20;48.90
16074;DHT22;8141;52.664;5.074;2023-03-01T04:28:42;17.20;48.90
16074;DHT22;8141;52.664;5.074;2023-03-01T04:31:14;17.10;48.80
16074;DHT22;8141;52.664;5.074;2023-03-01T04:33:46;17.10;48.80
16074;DHT22;8141;52.664;5.074;2023-03-01T04:36:17;17.20;48.90
16074;DHT22;8141;52.664;5.074;2023-03-01T04:38:46;17.10;48.80
16074;DHT22;8141;52.664;5.074;2023-03-01T04:41:17;17.10;48.80
16074;DHT22;8141;52.664;5.074;2023-03-01T04:43:46;17.10;48.90
16074;DHT22;8141;52.664;5.074;2023-03-01T04:46:16;17.10;48.80
16074;DHT22;8141;52.664;5.074;2023-03-01T04:48:46;17.20;48.80
16074;DHT22;8141;52.664;5.074;2023-03-01T04:51:14;17.20;49.10
16074;DHT22;8141;52.664;5.074;2023-03-01T04:53:43;17.10;48.70
16074;DHT22;8141;52.664;5.074;2023-03-01T04:56:12;17.10;48.80
16074;DHT22;8141;52.664;5.074;2023-03-01T04:58:42;17.10;48.80
16074;DHT22;8141;52.664;5.074;2023-03-01T05:01:11;17.10;48.80
16074;DHT22;8141;52.664;5.074;2023-03-01T05:03:43;17.10;48.80
16074;DHT22;8141;52.664;5.074;2023-03-01T05:06:12;17.10;48.70
16074;DHT22;8141;52.664;5.074;2023-03-01T05:08:40;17.10;48.80
16074;DHT22;8141;52.664;5.074;2023-03-01T05:11:09;17.10;49.00
16074;DHT22;8141;52.664;5.074;2023-03-01T05:13:39;17.10;48.70
16074;DHT22;8141;52.664;5.074;2023-03-01T05:16:09;17.10;48.70
16074;DHT22;8141;52.664;5.074;2023-03-01T05:18:39;17.10;48.70
16074;DHT22;8141;52.664;5.074;2023-03-01T05:21:09;17.10;48.60
16074;DHT22;8141;52.664;5.074;2023-03-01T05:23:39;17.10;48.70
16074;DHT22;8141;52.664;5.074;2023-03-01T05:26:08;17.10;48.70
16074;DHT22;8141;52.664;5.074;2023-03-01T05:28:53;17.10;48.70
16074;DHT22;8141;52.664;5.074;2023-03-01T05:31:27;17.10;48.80
16074;DHT22;8141;52.664;5.074;2023-03-01T05:33:57;17.00;48.60
16074;DHT22;8141;52.664;5.074;2023-03-01T05:36:25;17.10;48.60
16074;DHT22;8141;52.664;5.074;2023-03-01T05:38:54;17.00;48.60
16074;DHT22;8141;52.664;5.074;2023-03-01T05:41:22;17.00;48.80
16074;DHT22;8141;52.664;5.074;2023-03-01T05:43:50;17.00;48.60
16074;DHT22;8141;52.664;5.074;2023-03-01T05:46:18;17.00;48.70
16074;DHT22;8141;52.664;5.074;2023-03-01T05:48:48;17.00;49.20
16074;DHT22;8141;52.664;5.074;2023-03-01T05:51:16;17.00;49.00
16074;DHT22;8141;52.664;5.074;2023-03-01T05:53:45;17.00;49.30
16074;DHT22;8141;52.664;5.074;2023-03-01T05:56:13;17.00;49.40
16074;DHT22;8141;52.664;5.074;2023-03-01T05:58:41;17.00;49.80
16074;DHT22;8141;52.664;5.074;2023-03-01T06:01:11;17.00;49.70
16074;DHT22;8141;52.664;5.074;2023-03-01T06:03:40;17.10;50.00
16074;DHT22;8141;52.664;5.074;2023-03-01T06:06:10;17.10;50.00
16074;DHT22;8141;52.664;5.074;2023-03-01T06:08:38;17.10;50.10
16074;DHT22;8141;52.664;5.074;2023-03-01T06:11:06;17.10;50.10
16074;DHT22;8141;52.664;5.074;2023-03-01T06:13:35;17.20;50.30
16074;DHT22;8141;52.664;5.074;2023-03-01T06:16:05;17.20;50.40
16074;DHT22;8141;52.664;5.074;2023-03-01T06:18:33;17.20;50.30
16074;DHT22;8141;52.664;5.074;2023-03-01T06:21:02;17.30;50.40
16074;DHT22;8141;52.664;5.074;2023-03-01T06:23:32;17.30;50.40
16074;DHT22;8141;52.664;5.074;2023-03-01T06:26:05;17.30;50.30
16074;DHT22;8141;52.664;5.074;2023-03-01T06:28:34;17.30;50.30
16074;DHT22;8141;52.664;5.074;2023-03-01T06:31:03;17.40;50.30
16074;DHT22;8141;52.664;5.074;2023-03-01T06:33:35;17.40;50.30
16074;DHT22;8141;52.664;5.074;2023-03-01T06:36:04;17.40;50.00
16074;DHT22;8141;52.664;5.074;2023-03-01T06:38:34;17.40;50.20
16074;DHT22;8141;52.664;5.074;2023-03-01T06:41:02;17.50;50.80
16074;DHT22;8141;52.664;5.074;2023-03-01T06:43:31;17.50;50.00
16074;DHT22;8141;52.664;5.074;2023-03-01T06:45:59;17.50;50.30
16074;DHT22;8141;52.664;5.074;2023-03-01T06:48:28;17.50;50.30
16074;DHT22;8141;52.664;5.074;2023-03-01T06:50:58;17.60;50.40
16074;DHT22;8141;52.664;5.074;2023-03-01T06:53:27;17.60;50.40
16074;DHT22;8141;52.664;5.074;2023-03-01T06:55:57;17.60;50.40
16074;DHT22;8141;52.664;5.074;2023-03-01T06:58:26;17.70;50.40
16074;DHT22;8141;52.664;5.074;2023-03-01T07:00:55;17.70;50.50
16074;DHT22;8141;52.664;5.074;2023-03-01T07:03:23;17.70;50.50
16074;DHT22;8141;52.664;5.074;2023-03-01T07:05:52;17.70;50.50
16074;DHT22;8141;52.664;5.074;2023-03-01T07:08:20;17.70;50.50
16074;DHT22;8141;52.664;5.074;2023-03-01T07:10:48;17.70;50.50
16074;DHT22;8141;52.664;5.074;2023-03-01T07:13:24;17.70;50.50
16074;DHT22;8141;52.664;5.074;2023-03-01T07:15:53;17.70;50.50
16074;DHT22;8141;52.664;5.074;2023-03-01T07:18:21;17.70;50.50
16074;DHT22;8141;52.664;5.074;2023-03-01T07:20:50;17.80;50.60
16074;DHT22;8141;52.664;5.074;2023-03-01T07:23:18;17.80;50.50
16074;DHT22;8141;52.664;5.074;2023-03-01T07:25:51;17.80;50.50
16074;DHT22;8141;52.664;5.074;2023-03-01T07:28:22;17.80;50.60
16074;DHT22;8141;52.664;5.074;2023-03-01T07:30:52;17.80;50.50
16074;DHT22;8141;52.664;5.074;2023-03-01T07:33:20;17.80;50.50
16074;DHT22;8141;52.664;5.074;2023-03-01T07:35:48;17.80;50.60
16074;DHT22;8141;52.664;5.074;2023-03-01T07:38:24;17.80;50.20
16074;DHT22;8141;52.664;5.074;2023-03-01T07:40:52;17.90;50.20
16074;DHT22;8141;52.664;5.074;2023-03-01T07:43:20;18.00;50.10
16074;DHT22;8141;52.664;5.074;2023-03-01T07:45:50;18.00;50.70
16074;DHT22;8141;52.664;5.074;2023-03-01T07:48:19;18.00;50.00
16074;DHT22;8141;52.664;5.074;2023-03-01T07:50:47;18.00;49.90
16074;DHT22;8141;52.664;5.074;2023-03-01T07:53:15;18.00;50.00
16074;DHT22;8141;52.664;5.074;2023-03-01T07:55:43;18.00;49.90
16074;DHT22;8141;52.664;5.074;2023-03-01T07:58:12;18.00;49.90
16074;DHT22;8141;52.664;5.074;2023-03-01T08:00:40;18.00;49.80
16074;DHT22;8141;52.664;5.074;2023-03-01T08:03:10;18.00;49.70
16074;DHT22;8141;52.664;5.074;2023-03-01T08:05:38;18.00;49.60
16074;DHT22;8141;52.664;5.074;2023-03-01T08:08:06;18.00;49.50
16074;DHT22;8141;52.664;5.074;2023-03-01T08:10:36;17.90;49.50
16074;DHT22;8141;52.664;5.074;2023-03-01T08:13:05;17.90;49.50
16074;DHT22;8141;52.664;5.074;2023-03-01T08:15:33;17.90;49.80
16074;DHT22;8141;52.664;5.074;2023-03-01T08:18:01;18.00;50.20
16074;DHT22;8141;52.664;5.074;2023-03-01T08:20:31;17.90;50.20
16074;DHT22;8141;52.664;5.074;2023-03-01T08:22:59;17.90;50.40
16074;DHT22;8141;52.664;5.074;2023-03-01T08:25:27;17.90;50.10
16074;DHT22;8141;52.664;5.074;2023-03-01T08:27:55;17.90;50.00
16074;DHT22;8141;52.664;5.074;2023-03-01T08:30:24;17.90;50.50
16074;DHT22;8141;52.664;5.074;2023-03-01T08:32:52;17.90;50.70
16074;DHT22;8141;52.664;5.074;2023-03-01T08:35:22;17.90;51.10
16074;DHT22;8141;52.664;5.074;2023-03-01T08:37:52;17.90;51.30
16074;DHT22;8141;52.664;5.074;2023-03-01T08:40:20;18.00;51.70
16074;DHT22;8141;52.664;5.074;2023-03-01T08:42:48;18.00;52.60
16074;DHT22;8141;52.664;5.074;2023-03-01T08:45:16;18.00;54.00
16074;DHT22;8141;52.664;5.074;2023-03-01T08:47:45;18.00;54.60
16074;DHT22;8141;52.664;5.074;2023-03-01T08:50:14;18.10;54.80
16074;DHT22;8141;52.664;5.074;2023-03-01T08:52:42;18.00;55.40
16074;DHT22;8141;52.664;5.074;2023-03-01T08:55:12;18.00;56.00
16074;DHT22;8141;52.664;5.074;2023-03-01T08:57:43;18.10;55.10
16074;DHT22;8141;52.664;5.074;2023-03-01T09:00:12;18.00;55.00
16074;DHT22;8141;52.664;5.074;2023-03-01T09:02:41;18.00;54.70
16074;DHT22;8141;52.664;5.074;2023-03-01T09:05:09;18.00;54.30
16074;DHT22;8141;52.664;5.074;2023-03-01T09:07:38;18.00;54.20
16074;DHT22;8141;52.664;5.074;2023-03-01T09:10:07;18.00;54.10
16074;DHT22;8141;52.664;5.074;2023-03-01T09:12:37;18.00;54.00
16074;DHT22;8141;52.664;5.074;2023-03-01T09:15:07;17.90;53.80
16074;DHT22;8141;52.664;5.074;2023-03-01T09:17:36;17.90;53.80
16074;DHT22;8141;52.664;5.074;2023-03-01T09:20:05;17.90;53.60
16074;DHT22;8141;52.664;5.074;2023-03-01T09:22:34;17.90;53.40
16074;DHT22;8141;52.664;5.074;2023-03-01T09:25:02;17.90;53.70
16074;DHT22;8141;52.664;5.074;2023-03-01T09:27:31;17.90;53.60
16074;DHT22;8141;52.664;5.074;2023-03-01T09:30:00;17.90;53.40
16074;DHT22;8141;52.664;5.074;2023-03-01T09:32:30;17.90;53.30
16074;DHT22;8141;52.664;5.074;2023-03-01T09:34:58;17.90;53.30
16074;DHT22;8141;52.664;5.074;2023-03-01T09:37:32;17.90;53.20
16074;DHT22;8141;52.664;5.074;2023-03-01T09:40:02;17.90;53.00
16074;DHT22;8141;52.664;5.074;2023-03-01T09:42:34;17.90;53.10
16074;DHT22;8141;52.664;5.074;2023-03-01T09:45:06;17.80;53.10
16074;DHT22;8141;52.664;5.074;2023-03-01T09:47:40;17.90;53.00
16074;DHT22;8141;52.664;5.074;2023-03-01T09:50:12;17.80;52.90
16074;DHT22;8141;52.664;5.074;2023-03-01T09:52:46;17.80;52.90
16074;DHT22;8141;52.664;5.074;2023-03-01T09:55:23;17.80;52.80
16074;DHT22;8141;52.664;5.074;2023-03-01T09:57:56;17.80;52.80
16074;DHT22;8141;52.664;5.074;2023-03-01T10:00:36;17.80;52.90
16074;DHT22;8141;52.664;5.074;2023-03-01T10:03:12;17.80;52.90
16074;DHT22;8141;52.664;5.074;2023-03-01T10:05:56;17.80;52.90
16074;DHT22;8141;52.664;5.074;2023-03-01T10:08:30;17.80;52.80
16074;DHT22;8141;52.664;5.074;2023-03-01T10:11:04;17.80;52.70
16074;DHT22;8141;52.664;5.074;2023-03-01T10:13:48;17.80;52.70
16074;DHT22;8141;52.664;5.074;2023-03-01T10:16:26;17.80;52.90
16074;DHT22;8141;52.664;5.074;2023-03-01T10:19:00;17.80;52.90
16074;DHT22;8141;52.664;5.074;2023-03-01T10:21:30;17.80;52.90
16074;DHT22;8141;52.664;5.074;2023-03-01T10:24:10;17.80;52.90
16074;DHT22;8141;52.664;5.074;2023-03-01T10:26:48;17.80;52.80
16074;DHT22;8141;52.664;5.074;2023-03-01T10:29:23;17.80;52.90
16074;DHT22;8141;52.664;5.074;2023-03-01T10:31:55;17.80;52.90
16074;DHT22;8141;52.664;5.074;2023-03-01T10:34:28;17.90;52.90
16074;DHT22;8141;52.664;5.074;2023-03-01T10:37:04;17.90;52.90
16074;DHT22;8141;52.664;5.074;2023-03-01T10:42:29;18.00;52.80
16074;DHT22;8141;52.664;5.074;2023-03-01T10:45:17;18.00;52.70
16074;DHT22;8141;52.664;5.074;2023-03-01T10:48:06;18.00;52.60
16074;DHT22;8141;52.664;5.074;2023-03-01T10:50:40;18.00;52.40
16074;DHT22;8141;52.664;5.074;2023-03-01T10:53:24;18.10;52.40
16074;DHT22;8141;52.664;5.074;2023-03-01T10:55:58;18.10;52.30
16074;DHT22;8141;52.664;5.074;2023-03-01T10:58:28;18.10;52.30
16074;DHT22;8141;52.664;5.074;2023-03-01T11:00:59;18.10;52.20
16074;DHT22;8141;52.664;5.074;2023-03-01T11:03:31;18.20;52.20
16074;DHT22;8141;52.664;5.074;2023-03-01T11:06:06;18.20;52.30
16074;DHT22;8141;52.664;5.074;2023-03-01T11:08:49;18.20;52.20
16074;DHT22;8141;52.664;5.074;2023-03-01T11:11:32;18.20;52.10
16074;DHT22;8141;52.664;5.074;2023-03-01T11:14:05;18.20;52.10
16074;DHT22;8141;52.664;5.074;2023-03-01T11:16:59;18.30;52.00
16074;DHT22;8141;52.664;5.074;2023-03-01T11:19:31;18.20;51.90
16074;DHT22;8141;52.664;5.074;2023-03-01T11:22:02;18.30;52.00
16074;DHT22;8141;52.664;5.074;2023-03-01T11:24:37;18.30;51.90
16074;DHT22;8141;52.664;5.074;2023-03-01T11:27:17;18.30;52.00
16074;DHT22;8141;52.664;5.074;2023-03-01T11:29:46;18.30;51.90
16074;DHT22;8141;52.664;5.074;2023-03-01T11:32:20;18.30;51.90
16074;DHT22;8141;52.664;5.074;2023-03-01T11:34:56;18.30;51.90
16074;DHT22;8141;52.664;5.074;2023-03-01T11:37:33;18.30;51.90
16074;DHT22;8141;52.664;5.074;2023-03-01T11:40:12;18.30;51.20
16074;DHT22;8141;52.664;5.074;2023-03-01T11:42:58;18.30;51.10
16074;DHT22;8141;52.664;5.074;2023-03-01T11:45:43;18.30;50.80
16074;DHT22;8141;52.664;5.074;2023-03-01T11:48:39;18.40;51.10
16074;DHT22;8141;52.664;5.074;2023-03-01T11:51:24;18.40;51.30
16074;DHT22;8141;52.664;5.074;2023-03-01T11:54:13;18.30;51.10
16074;DHT22;8141;52.664;5.074;2023-03-01T11:56:48;18.30;51.10
16074;DHT22;8141;52.664;5.074;2023-03-01T11:59:51;18.40;51.20
16074;DHT22;8141;52.664;5.074;2023-03-01T12:02:42;18.30;51.10
16074;DHT22;8141;52.664;5.074;2023-03-01T12:05:56;18.30;51.10
16074;DHT22;8141;52.664;5.074;2023-03-01T12:08:54;18.30;51.10
16074;DHT22;8141;52.664;5.074;2023-03-01T12:11:32;18.30;51.10
16074;DHT22;8141;52.664;5.074;2023-03-01T12:14:13;18.30;50.70
16074;DHT22;8141;52.664;5.074;2023-03-01T12:17:16;18.30;50.90
16074;DHT22;8141;52.664;5.074;2023-03-01T12:20:27;18.30;50.80
16074;DHT22;8141;52.664;5.074;2023-03-01T12:26:08;18.20;42.80
16074;DHT22;8141;52.664;5.074;2023-03-01T12:29:08;18.00;43.60
16074;DHT22;8141;52.664;5.074;2023-03-01T12:31:52;18.00;45.50
16074;DHT22;8141;52.664;5.074;2023-03-01T12:37:41;17.90;42.50
16074;DHT22;8141;52.664;5.074;2023-03-01T12:40:38;17.80;43.60
16074;DHT22;8141;52.664;5.074;2023-03-01T12:43:22;17.80;44.20
16074;DHT22;8141;52.664;5.074;2023-03-01T12:46:00;17.80;44.30
16074;DHT22;8141;52.664;5.074;2023-03-01T12:48:37;17.80;43.90
16074;DHT22;8141;52.664;5.074;2023-03-01T12:51:15;17.90;44.20
16074;DHT22;8141;52.664;5.074;2023-03-01T12:53:46;17.90;44.40
16074;DHT22;8141;52.664;5.074;2023-03-01T12:56:19;17.90;44.60
16074;DHT22;8141;52.664;5.074;2023-03-01T12:58:58;17.90;44.20
16074;DHT22;8141;52.664;5.074;2023-03-01T13:01:41;17.90;44.30
16074;DHT22;8141;52.664;5.074;2023-03-01T13:04:25;18.00;44.60
16074;DHT22;8141;52.664;5.074;2023-03-01T13:07:20;17.90;45.00
16074;DHT22;8141;52.664;5.074;2023-03-01T13:09:55;18.00;45.10
16074;DHT22;8141;52.664;5.074;2023-03-01T13:12:50;18.00;44.90
16074;DHT22;8141;52.664;5.074;2023-03-01T13:15:32;18.00;45.00
16074;DHT22;8141;52.664;5.074;2023-03-01T13:18:03;18.00;45.00
16074;DHT22;8141;52.664;5.074;2023-03-01T13:20:45;18.00;45.00
16074;DHT22;8141;52.664;5.074;2023-03-01T13:23:23;18.00;45.60
16074;DHT22;8141;52.664;5.074;2023-03-01T13:26:08;18.00;45.30
16074;DHT22;8141;52.664;5.074;2023-03-01T13:29:00;18.00;44.10
16074;DHT22;8141;52.664;5.074;2023-03-01T13:31:59;17.90;45.00
16074;DHT22;8141;52.664;5.074;2023-03-01T13:34:45;18.00;45.00
16074;DHT22;8141;52.664;5.074;2023-03-01T13:37:32;18.00;44.90
16074;DHT22;8141;52.664;5.074;2023-03-01T13:43:31;18.00;45.30
16074;DHT22;8141;52.664;5.074;2023-03-01T13:46:00;18.00;45.40
16074;DHT22;8141;52.664;5.074;2023-03-01T13:48:33;18.00;45.40
16074;DHT22;8141;52.664;5.074;2023-03-01T13:51:03;18.10;45.50
16074;DHT22;8141;52.664;5.074;2023-03-01T13:53:35;18.10;45.40
16074;DHT22;8141;52.664;5.074;2023-03-01T13:56:08;18.10;45.60
16074;DHT22;8141;52.664;5.074;2023-03-01T13:58:44;18.10;45.70
16074;DHT22;8141;52.664;5.074;2023-03-01T14:01:22;18.10;45.50
16074;DHT22;8141;52.664;5.074;2023-03-01T14:03:54;18.10;45.60
16074;DHT22;8141;52.664;5.074;2023-03-01T14:06:24;18.10;45.60
16074;DHT22;8141;52.664;5.074;2023-03-01T14:09:03;18.20;45.80
16074;DHT22;8141;52.664;5.074;2023-03-01T14:11:56;18.20;45.80
16074;DHT22;8141;52.664;5.074;2023-03-01T14:14:45;18.20;45.90
16074;DHT22;8141;52.664;5.074;2023-03-01T14:17:49;18.20;46.00
16074;DHT22;8141;52.664;5.074;2023-03-01T14:20:23;18.20;45.80
16074;DHT22;8141;52.664;5.074;2023-03-01T14:22:55;18.30;46.30
16074;DHT22;8141;52.664;5.074;2023-03-01T14:25:27;18.30;46.20
16074;DHT22;8141;52.664;5.074;2023-03-01T14:28:00;18.30;46.10
16074;DHT22;8141;52.664;5.074;2023-03-01T14:30:35;18.30;46.60
16074;DHT22;8141;52.664;5.074;2023-03-01T14:33:17;18.40;46.80
16074;DHT22;8141;52.664;5.074;2023-03-01T14:35:55;18.40;47.00
16074;DHT22;8141;52.664;5.074;2023-03-01T14:38:31;18.50;47.90
16074;DHT22;8141;52.664;5.074;2023-03-01T14:41:04;18.60;48.20
16074;DHT22;8141;52.664;5.074;2023-03-01T14:43:35;18.60;48.80
16074;DHT22;8141;52.664;5.074;2023-03-01T14:46:05;18.70;52.50
16074;DHT22;8141;52.664;5.074;2023-03-01T14:48:34;18.80;54.60
16074;DHT22;8141;52.664;5.074;2023-03-01T14:51:04;18.90;53.70
16074;DHT22;8141;52.664;5.074;2023-03-01T14:53:33;18.90;56.40
16074;DHT22;8141;52.664;5.074;2023-03-01T14:56:17;19.00;59.70
16074;DHT22;8141;52.664;5.074;2023-03-01T14:58:46;19.00;60.10
16074;DHT22;8141;52.664;5.074;2023-03-01T15:01:16;19.10;60.70
16074;DHT22;8141;52.664;5.074;2023-03-01T15:03:46;19.10;58.70
16074;DHT22;8141;52.664;5.074;2023-03-01T15:06:18;19.20;59.60
16074;DHT22;8141;52.664;5.074;2023-03-01T15:08:50;19.20;58.50
16074;DHT22;8141;52.664;5.074;2023-03-01T15:11:22;19.30;57.70
16074;DHT22;8141;52.664;5.074;2023-03-01T15:13:52;19.30;57.00
16074;DHT22;8141;52.664;5.074;2023-03-01T15:16:23;19.40;56.70
16074;DHT22;8141;52.664;5.074;2023-03-01T15:18:54;19.40;55.80
16074;DHT22;8141;52.664;5.074;2023-03-01T15:21:26;19.40;56.00
16074;DHT22;8141;52.664;5.074;2023-03-01T15:24:05;19.50;55.80
16074;DHT22;8141;52.664;5.074;2023-03-01T15:26:41;19.50;56.20
16074;DHT22;8141;52.664;5.074;2023-03-01T15:29:16;19.50;58.30
16074;DHT22;8141;52.664;5.074;2023-03-01T15:31:55;19.60;56.70
16074;DHT22;8141;52.664;5.074;2023-03-01T15:34:27;19.70;55.70
16074;DHT22;8141;52.664;5.074;2023-03-01T15:36:58;19.70;55.30
16074;DHT22;8141;52.664;5.074;2023-03-01T15:39:32;19.70;55.20
16074;DHT22;8141;52.664;5.074;2023-03-01T15:42:07;19.60;55.10
16074;DHT22;8141;52.664;5.074;2023-03-01T15:44:38;19.60;55.00
16074;DHT22;8141;52.664;5.074;2023-03-01T15:47:25;19.60;54.80
16074;DHT22;8141;52.664;5.074;2023-03-01T15:49:55;19.50;54.80
16074;DHT22;8141;52.664;5.074;2023-03-01T15:52:27;19.50;54.70
16074;DHT22;8141;52.664;5.074;2023-03-01T15:54:59;19.50;54.70
16074;DHT22;8141;52.664;5.074;2023-03-01T15:57:29;19.40;54.20
16074;DHT22;8141;52.664;5.074;2023-03-01T15:59:57;19.40;54.60
16074;DHT22;8141;52.664;5.074;2023-03-01T16:02:25;19.30;54.10
16074;DHT22;8141;52.664;5.074;2023-03-01T16:04:53;19.30;53.90
16074;DHT22;8141;52.664;5.074;2023-03-01T16:07:23;19.30;54.20
16074;DHT22;8141;52.664;5.074;2023-03-01T16:09:55;19.20;53.60
16074;DHT22;8141;52.664;5.074;2023-03-01T16:12:24;19.20;53.60
16074;DHT22;8141;52.664;5.074;2023-03-01T16:14:52;19.20;53.60
16074;DHT22;8141;52.664;5.074;2023-03-01T16:17:20;19.20;53.50
16074;DHT22;8141;52.664;5.074;2023-03-01T16:19:49;19.20;53.50
16074;DHT22;8141;52.664;5.074;2023-03-01T16:22:17;19.20;53.50
16074;DHT22;8141;52.664;5.074;2023-03-01T16:24:51;19.20;53.50
16074;DHT22;8141;52.664;5.074;2023-03-01T16:27:20;19.20;53.50
16074;DHT22;8141;52.664;5.074;2023-03-01T16:29:49;19.10;53.50
16074;DHT22;8141;52.664;5.074;2023-03-01T16:32:17;19.00;53.50
16074;DHT22;8141;52.664;5.074;2023-03-01T16:34:45;19.00;53.30